.
WxDataArchive / Data Records for 2006-10-25
2006-10-24 October 2006 2006-10-26

Data Records for Wednesday, 25 October 2006

Time	Temp	Chill	HIndex	Humid	Dewpt	 Wind 	HiWind	WindDir	Rain 	Barom 
-----	----	-----	------	-----	-----	------	------	-------	-----	----- 
00:00	32.1	32.1	32.1	86	28.4	0	0	---	0.00	30.161 
00:05	31.9	31.9	31.9	86	28.2	0	0	---	0.00	30.161 
00:10	31.8	31.8	31.8	87	28.4	0	0	---	0.00	30.161 
00:15	31.6	31.6	31.6	87	28.2	0	0	---	0.00	30.160 
00:20	31.5	31.5	31.5	87	28.1	0	0	---	0.00	30.160 
00:25	31.3	31.3	31.3	87	27.9	0	0	---	0.00	30.160 
00:30	31.2	31.2	31.2	87	27.8	0	0	---	0.00	30.158 
00:35	31.0	31.0	31.0	88	27.9	0	0	---	0.00	30.158 
00:40	31.0	31.0	31.0	88	27.9	0	0	---	0.00	30.158 
00:45	30.9	30.9	30.9	88	27.8	0	0	---	0.00	30.159 
00:50	30.7	30.7	30.7	88	27.6	0	0	---	0.00	30.159 
00:55	30.4	30.4	30.4	88	27.3	0	0	---	0.00	30.159 
01:00	30.3	30.3	30.3	88	27.2	0	0	---	0.00	30.155 
01:05	30.1	30.1	30.1	88	27.0	0	0	---	0.00	30.155 
01:10	30.0	30.0	30.0	88	26.9	0	0	---	0.00	30.155 
01:15	29.8	29.8	29.8	89	27.0	0	0	---	0.00	30.158 
01:20	29.8	29.8	29.8	89	27.0	0	0	---	0.00	30.158 
01:25	29.7	29.7	29.7	89	26.9	0	0	---	0.00	30.158 
01:30	29.5	29.5	29.5	89	26.7	0	0	---	0.00	30.158 
01:35	29.4	29.4	29.4	89	26.6	0	0	---	0.00	30.158 
01:40	29.4	29.4	29.4	90	26.8	0	0	---	0.00	30.158 
01:45	29.3	29.3	29.3	90	26.7	0	0	---	0.00	30.163 
01:50	29.3	29.3	29.3	90	26.7	0	0	---	0.00	30.163 
01:55	29.3	29.3	29.3	90	26.7	0	0	---	0.00	30.163 
02:00	29.1	29.1	29.1	90	26.5	0	0	---	0.00	30.163 
02:05	29.1	29.1	29.1	90	26.5	0	0	---	0.00	30.163 
02:10	29.0	29.0	29.0	90	26.4	0	0	---	0.00	30.163 
02:15	29.0	29.0	29.0	90	26.4	0	0	---	0.00	30.166 
02:20	28.8	28.8	28.8	90	26.2	0	0	---	0.00	30.166 
02:25	28.8	28.8	28.8	90	26.2	0	0	---	0.00	30.166 
02:30	28.8	28.8	28.8	90	26.2	0	0	---	0.00	30.170 
02:35	28.7	28.7	28.7	91	26.4	0	0	---	0.00	30.170 
02:40	28.7	28.7	28.7	91	26.4	0	0	---	0.00	30.170 
02:45	28.7	28.7	28.7	91	26.4	0	0	---	0.00	30.177 
02:50	28.7	28.7	28.7	91	26.4	0	0	---	0.00	30.177 
02:55	28.5	28.5	28.5	91	26.2	0	0	---	0.00	30.177 
03:00	28.5	28.5	28.5	91	26.2	0	0	---	0.00	30.177 
03:05	28.4	28.4	28.4	91	26.1	0	0	---	0.00	30.177 
03:10	28.2	28.2	28.2	91	25.9	0	0	---	0.00	30.177 
03:15	28.1	28.1	28.1	91	25.8	0	0	---	0.00	30.180 
03:20	28.1	28.1	28.1	91	25.8	0	0	---	0.00	30.180 
03:25	27.9	27.9	27.9	91	25.6	0	0	---	0.00	30.180 
03:30	27.9	27.9	27.9	91	25.6	0	0	---	0.00	30.182 
03:35	27.9	27.9	27.9	91	25.6	0	0	---	0.00	30.182 
03:40	27.9	27.9	27.9	91	25.6	0	0	---	0.00	30.182 
03:45	27.8	27.8	27.8	91	25.5	0	0	---	0.00	30.184 
03:50	27.8	27.8	27.8	91	25.5	0	0	---	0.00	30.184 
03:55	27.6	27.6	27.6	91	25.3	0	0	---	0.00	30.184 
04:00	27.6	27.6	27.6	91	25.3	0	0	---	0.00	30.183 
04:05	27.6	27.6	27.6	92	25.6	0	0	---	0.00	30.183 
04:10	27.6	27.6	27.6	92	25.6	0	0	---	0.00	30.183 
04:15	27.5	27.5	27.5	91	25.2	0	0	---	0.00	30.186 
04:20	27.3	27.3	27.3	91	25.0	0	0	---	0.00	30.186 
04:25	27.5	27.5	27.5	92	25.5	0	0	---	0.00	30.186 
04:30	27.5	27.5	27.5	92	25.5	0	0	---	0.00	30.183 
04:35	27.6	27.6	27.6	92	25.6	0	0	---	0.00	30.183 
04:40	27.6	27.6	27.6	92	25.6	0	0	---	0.00	30.183 
04:45	27.6	27.6	27.6	92	25.6	0	0	---	0.00	30.184 
04:50	27.6	27.6	27.6	92	25.6	0	0	---	0.00	30.184 
04:55	27.8	27.8	27.8	92	25.8	0	0	---	0.00	30.184 
05:00	27.8	27.8	27.8	92	25.8	0	0	---	0.00	30.183 
05:05	27.8	27.8	27.8	92	25.8	0	0	---	0.00	30.183 
05:10	27.8	27.8	27.8	92	25.8	0	0	---	0.00	30.183 
05:15	27.6	27.6	27.6	91	25.3	0	0	---	0.00	30.184 
05:20	27.5	27.5	27.5	91	25.2	0	0	---	0.00	30.184 
05:25	27.2	27.2	27.2	91	24.9	0	0	---	0.00	30.184 
05:30	27.2	27.2	27.2	91	24.9	0	0	---	0.00	30.191 
05:35	27.0	27.0	27.0	91	24.7	0	0	---	0.00	30.191 
05:40	27.0	27.0	27.0	91	24.7	0	0	---	0.00	30.191 
05:45	26.9	26.9	26.9	91	24.6	0	0	---	0.00	30.195 
05:50	26.7	26.7	26.7	91	24.4	0	0	---	0.00	30.195 
05:55	26.6	26.6	26.6	91	24.3	0	0	---	0.00	30.195 
06:00	26.6	26.6	26.6	91	24.3	0	0	---	0.00	30.196 
06:05	26.7	26.7	26.7	92	24.7	0	0	---	0.00	30.196 
06:10	26.9	26.9	26.9	92	24.9	0	0	---	0.00	30.196 
06:15	26.9	26.9	26.9	92	24.9	0	0	---	0.00	30.204 
06:20	26.9	26.9	26.9	92	24.9	0	0	---	0.00	30.204 
06:25	26.7	26.7	26.7	92	24.7	0	0	---	0.00	30.204 
06:30	26.7	26.7	26.7	92	24.7	0	0	---	0.00	30.205 
06:35	26.6	26.6	26.6	92	24.6	0	0	---	0.00	30.205 
06:40	26.4	26.4	26.4	92	24.4	0	0	---	0.00	30.205 
06:45	26.4	26.4	26.4	92	24.4	0	0	---	0.00	30.202 
06:50	26.3	26.3	26.3	92	24.3	0	0	---	0.00	30.202 
06:55	26.3	26.3	26.3	92	24.3	0	0	---	0.00	30.202 
07:00	26.1	26.1	26.1	92	24.1	0	0	---	0.00	30.205 
07:05	26.0	26.0	26.0	92	24.0	0	0	---	0.00	30.205 
07:10	26.0	26.0	26.0	92	24.0	0	0	---	0.00	30.205 
07:15	25.8	25.8	25.8	92	23.8	0	0	---	0.00	30.211 
07:20	25.8	25.8	25.8	92	23.8	0	0	---	0.00	30.211 
07:25	25.8	25.8	25.8	92	23.8	0	0	---	0.00	30.211 
07:30	25.8	25.8	25.8	92	23.8	0	0	---	0.00	30.214 
07:35	25.8	25.8	25.8	92	23.8	0	0	---	0.00	30.214 
07:40	25.8	25.8	25.8	92	23.8	0	0	---	0.00	30.214 
07:45	25.7	25.7	25.7	92	23.7	0	0	---	0.00	30.215 
07:50	25.7	25.7	25.7	92	23.7	0	0	---	0.00	30.215 
07:55	25.7	25.7	25.7	92	23.7	0	0	---	0.00	30.215 
08:00	25.6	25.6	25.6	92	23.6	0	0	---	0.00	30.216 
08:05	25.6	25.6	25.6	92	23.6	0	0	---	0.00	30.216 
08:10	25.6	25.6	25.6	92	23.6	0	0	---	0.00	30.216 
08:15	25.6	25.6	25.6	92	23.6	0	0	---	0.00	30.220 
08:20	25.6	25.6	25.6	92	23.6	0	0	---	0.00	30.220 
08:25	25.6	25.6	25.6	92	23.6	0	0	---	0.00	30.220 
08:30	25.6	25.6	25.6	92	23.6	0	1	315	0.00	30.230 
08:35	25.7	25.7	25.7	92	23.7	0	0	---	0.00	30.230 
08:40	25.8	25.8	25.8	92	23.8	0	0	---	0.00	30.230 
08:45	26.0	26.0	26.0	92	24.0	0	0	---	0.00	30.232 
08:50	26.4	26.4	26.4	93	24.7	0	0	---	0.00	30.232 
08:55	26.9	26.9	26.9	93	25.2	0	0	---	0.00	30.232 
09:00	27.3	27.3	27.3	93	25.5	0	0	---	0.00	30.233 
09:05	27.9	27.9	27.9	94	26.4	0	0	---	0.00	30.233 
09:10	28.4	28.4	28.4	94	26.9	0	0	---	0.00	30.233 
09:15	28.8	28.8	28.8	94	27.3	0	0	---	0.00	30.238 
09:20	29.1	29.1	29.1	94	27.6	0	0	---	0.00	30.238 
09:25	29.5	29.5	29.5	94	28.0	0	0	---	0.00	30.238 
09:30	30.1	30.1	30.1	94	28.6	0	0	---	0.00	30.241 
09:35	30.9	30.9	30.9	94	29.4	0	0	---	0.00	30.241 
09:40	31.5	31.5	31.5	94	30.0	0	0	---	0.00	30.241 
09:45	32.4	32.4	32.4	94	30.9	0	0	---	0.00	30.244 
09:50	33.1	33.1	33.1	91	30.8	0	0	---	0.00	30.244 
09:55	33.8	33.8	33.8	88	30.6	0	0	---	0.00	30.244 
10:00	34.7	34.7	34.7	85	30.7	0	1	315	0.00	30.241 
10:05	35.8	35.8	35.8	83	31.2	0	2	315	0.00	30.241 
10:10	37.0	37.0	37.0	79	31.1	0	0	---	0.00	30.241 
10:15	37.9	37.9	37.9	76	31.0	0	1	315	0.00	30.240 
10:20	38.5	38.5	38.5	75	31.3	0	0	---	0.00	30.240 
10:25	39.3	39.3	39.3	73	31.4	0	1	315	0.00	30.240 
10:30	40.1	40.1	40.1	74	32.5	0	1	315	0.00	30.234 
10:35	40.6	40.6	40.6	72	32.3	0	1	315	0.00	30.234 
10:40	41.3	41.3	41.3	69	31.9	0	1	315	0.00	30.234 
10:45	41.9	41.9	41.9	66	31.4	0	1	315	0.00	30.235 
10:50	42.2	42.2	42.2	64	30.9	0	1	315	0.00	30.235 
10:55	42.6	42.6	42.6	64	31.3	0	1	315	0.00	30.235 
11:00	42.8	42.8	42.8	63	31.1	0	1	315	0.00	30.236 
11:05	43.2	43.2	43.2	62	31.1	1	3	270	0.00	30.236 
11:10	43.8	43.8	43.8	62	31.6	1	2	270	0.00	30.236 
11:15	44.2	44.2	44.2	62	32.0	0	2	270	0.00	30.234 
11:20	44.8	44.8	44.8	62	32.6	1	2	270	0.00	30.234 
11:25	44.9	44.9	44.9	58	31.0	1	2	270	0.00	30.234 
11:30	45.1	45.1	45.1	57	30.8	0	1	270	0.00	30.232 
11:35	45.4	45.4	45.4	54	29.7	0	1	270	0.00	30.232 
11:40	45.7	45.7	45.7	53	29.6	1	4	248	0.00	30.232 
11:45	46.0	46.0	46.0	53	29.8	1	3	248	0.00	30.227 
11:50	46.2	46.2	46.2	52	29.6	0	2	225	0.00	30.227 
11:55	46.2	46.2	46.2	52	29.6	0	2	225	0.00	30.227 
12:00	46.2	46.2	46.2	53	30.0	0	2	225	0.00	30.223 
12:05	46.5	46.5	46.5	54	30.8	1	2	225	0.00	30.223 
12:10	46.8	46.8	46.8	51	29.6	0	2	225	0.00	30.223 
12:15	46.7	46.7	46.7	50	29.1	0	2	225	0.00	30.224 
12:20	46.5	46.5	46.5	52	29.8	0	2	248	0.00	30.224 
12:25	45.8	45.8	45.8	52	29.2	0	1	248	0.00	30.224 
12:30	45.1	45.1	45.1	53	29.0	0	1	292	0.00	30.227 
12:35	44.9	44.9	44.9	55	29.7	0	1	292	0.00	30.227 
12:40	44.9	44.9	44.9	56	30.2	0	1	292	0.00	30.227 
12:45	45.8	45.8	45.8	52	29.2	1	2	292	0.00	30.225 
12:50	46.5	46.5	46.5	53	30.3	0	2	0	0.00	30.225 
12:55	46.5	46.5	46.5	51	29.4	0	2	0	0.00	30.225 
13:00	46.1	46.1	46.1	51	29.0	0	1	0	0.00	30.223 
13:05	46.0	46.0	46.0	51	28.9	0	1	0	0.00	30.223 
13:10	45.8	45.8	45.8	52	29.2	0	2	0	0.00	30.223 
13:15	45.7	45.7	45.7	51	28.6	0	1	0	0.00	30.222 
13:20	45.4	45.4	45.4	50	27.9	0	1	0	0.00	30.222 
13:25	45.5	45.5	45.5	50	28.0	0	1	0	0.00	30.222 
13:30	45.7	45.7	45.7	52	29.1	0	2	338	0.00	30.217 
13:35	45.7	45.7	45.7	50	28.1	0	2	338	0.00	30.217 
13:40	45.7	45.7	45.7	52	29.1	0	1	338	0.00	30.217 
13:45	46.2	46.2	46.2	56	31.4	1	2	315	0.00	30.210 
13:50	47.0	47.0	47.0	56	32.1	0	2	315	0.00	30.210 
13:55	47.1	47.1	47.1	49	28.9	0	1	292	0.00	30.210 
14:00	47.1	47.1	47.1	48	28.4	0	1	292	0.00	30.201 
14:05	47.3	47.3	47.3	49	29.1	0	2	292	0.00	30.201 
14:10	47.3	47.3	47.3	50	29.6	0	2	292	0.00	30.201 
14:15	47.3	47.3	47.3	47	28.1	0	1	292	0.00	30.195 
14:20	47.1	47.1	47.1	47	27.9	0	1	292	0.00	30.195 
14:25	47.0	47.0	47.0	51	29.8	0	1	292	0.00	30.195 
14:30	47.3	47.3	47.3	50	29.6	0	1	292	0.00	30.190 
14:35	47.7	47.7	47.7	49	29.5	0	2	22	0.00	30.190 
14:40	48.2	48.2	48.2	52	31.4	1	3	45	0.00	30.190 
14:45	48.5	48.5	48.5	45	28.1	0	3	90	0.00	30.183 
14:50	48.8	48.8	48.8	48	30.0	0	3	248	0.00	30.183 
14:55	49.1	49.1	49.1	45	28.7	1	4	292	0.00	30.183 
15:00	49.4	49.4	49.4	44	28.4	0	3	292	0.00	30.179 
15:05	49.6	49.6	49.6	43	28.0	1	3	248	0.00	30.179 
15:10	49.4	49.4	49.4	42	27.3	0	2	248	0.00	30.179 
15:15	48.8	48.8	48.8	43	27.3	0	1	248	0.00	30.178 
15:20	48.6	48.6	48.6	44	27.7	0	1	248	0.00	30.178 
15:25	48.6	48.6	48.6	44	27.7	0	3	180	0.00	30.178 
15:30	48.8	48.8	48.8	45	28.4	0	2	202	0.00	30.176 
15:35	48.8	48.8	48.8	45	28.4	0	1	202	0.00	30.176 
15:40	49.2	49.2	49.2	45	28.8	1	3	248	0.00	30.176 
15:45	49.2	49.2	49.2	43	27.7	0	2	270	0.00	30.173 
15:50	49.5	49.5	49.5	43	27.9	0	2	292	0.00	30.173 
15:55	49.5	49.5	49.5	44	28.5	0	2	292	0.00	30.173 
16:00	49.8	49.8	49.8	42	27.6	0	2	270	0.00	30.170 
16:05	50.1	50.1	50.1	42	27.9	1	3	270	0.00	30.170 
16:10	49.8	49.8	49.8	43	28.2	0	2	292	0.00	30.170 
16:15	49.8	49.8	49.8	42	27.6	0	2	292	0.00	30.168 
16:20	49.6	49.6	49.6	41	26.9	0	1	292	0.00	30.168 
16:25	49.4	49.4	49.4	41	26.7	0	2	292	0.00	30.168 
16:30	49.4	49.4	49.4	43	27.9	0	1	315	0.00	30.166 
16:35	49.6	49.6	49.6	43	28.0	1	3	315	0.00	30.166 
16:40	50.1	50.1	50.1	42	27.9	1	3	270	0.00	30.166 
16:45	49.8	49.8	49.8	41	27.1	0	1	270	0.00	30.169 
16:50	49.6	49.6	49.6	44	28.6	0	0	---	0.00	30.169 
16:55	49.5	49.5	49.5	41	26.8	0	2	270	0.00	30.169 
17:00	49.4	49.4	49.4	43	27.9	0	3	270	0.00	30.170 
17:05	49.4	49.4	49.4	41	26.7	0	2	270	0.00	30.170 
17:10	49.1	49.1	49.1	43	27.6	0	1	270	0.00	30.170 
17:15	48.9	48.9	48.9	43	27.4	0	1	270	0.00	30.168 
17:20	48.9	48.9	48.9	42	26.8	0	1	270	0.00	30.168 
17:25	48.9	48.9	48.9	43	27.4	0	1	270	0.00	30.168 
17:30	48.9	48.9	48.9	42	26.8	0	0	---	0.00	30.166 
17:35	48.9	48.9	48.9	43	27.4	0	1	270	0.00	30.166 
17:40	48.9	48.9	48.9	43	27.4	0	1	270	0.00	30.166 
17:45	48.8	48.8	48.8	41	26.2	0	0	---	0.00	30.166 
17:50	48.6	48.6	48.6	43	27.1	0	0	---	0.00	30.166 
17:55	48.5	48.5	48.5	42	26.5	0	0	---	0.00	30.166 
18:00	48.2	48.2	48.2	43	26.8	0	0	---	0.00	30.165 
18:05	48.0	48.0	48.0	44	27.1	0	0	---	0.00	30.165 
18:10	47.7	47.7	47.7	46	27.9	0	0	---	0.00	30.165 
18:15	47.4	47.4	47.4	46	27.7	0	1	270	0.00	30.166 
18:20	47.1	47.1	47.1	46	27.4	0	0	---	0.00	30.166 
18:25	47.0	47.0	47.0	46	27.3	0	1	270	0.00	30.166 
18:30	46.7	46.7	46.7	49	28.6	0	0	---	0.00	30.166 
18:35	46.4	46.4	46.4	50	28.8	0	0	---	0.00	30.166 
18:40	46.0	46.0	46.0	51	28.9	0	0	---	0.00	30.166 
18:45	45.4	45.4	45.4	52	28.8	0	0	---	0.00	30.166 
18:50	44.9	44.9	44.9	53	28.8	0	0	---	0.00	30.166 
18:55	44.3	44.3	44.3	55	29.2	0	0	---	0.00	30.166 
19:00	43.8	43.8	43.8	57	29.6	0	0	---	0.00	30.169 
19:05	43.1	43.1	43.1	58	29.3	0	0	---	0.00	30.169 
19:10	42.5	42.5	42.5	59	29.2	0	0	---	0.00	30.169 
19:15	41.9	41.9	41.9	61	29.4	0	0	---	0.00	30.172 
19:20	41.3	41.3	41.3	63	29.7	0	0	---	0.00	30.172 
19:25	40.8	40.8	40.8	63	29.2	0	0	---	0.00	30.172 
19:30	40.3	40.3	40.3	63	28.7	0	0	---	0.00	30.182 
19:35	39.9	39.9	39.9	64	28.7	0	0	---	0.00	30.182 
19:40	39.5	39.5	39.5	65	28.7	0	0	---	0.00	30.182 
19:45	39.1	39.1	39.1	67	29.1	0	0	---	0.00	30.185 
19:50	38.6	38.6	38.6	68	29.0	0	0	---	0.00	30.185 
19:55	38.2	38.2	38.2	69	28.9	0	0	---	0.00	30.185 
20:00	37.8	37.8	37.8	69	28.6	0	0	---	0.00	30.185 
20:05	37.5	37.5	37.5	70	28.6	0	0	---	0.00	30.185 
20:10	37.2	37.2	37.2	71	28.7	0	0	---	0.00	30.185 
20:15	36.9	36.9	36.9	72	28.7	0	0	---	0.00	30.184 
20:20	36.6	36.6	36.6	72	28.4	0	0	---	0.00	30.184 
20:25	36.3	36.3	36.3	74	28.8	0	0	---	0.00	30.184 
20:30	36.0	36.0	36.0	75	28.9	0	0	---	0.00	30.187 
20:35	35.8	35.8	35.8	76	29.0	0	0	---	0.00	30.187 
20:40	35.6	35.6	35.6	77	29.1	0	0	---	0.00	30.187 
20:45	35.5	35.5	35.5	78	29.3	0	0	---	0.00	30.189 
20:50	35.2	35.2	35.2	79	29.4	0	0	---	0.00	30.189 
20:55	35.0	35.0	35.0	79	29.2	0	0	---	0.00	30.189 
21:00	34.7	34.7	34.7	79	28.9	0	0	---	0.00	30.190 
21:05	34.6	34.6	34.6	80	29.1	0	0	---	0.00	30.190 
21:10	34.4	34.4	34.4	81	29.2	0	0	---	0.00	30.190 
21:15	34.3	34.3	34.3	81	29.1	0	0	---	0.00	30.181 
21:20	34.1	34.1	34.1	81	28.9	0	0	---	0.00	30.181 
21:25	34.0	34.0	34.0	82	29.1	0	0	---	0.00	30.181 
21:30	33.8	33.8	33.8	82	28.9	0	0	---	0.00	30.181 
21:35	33.7	33.7	33.7	83	29.1	0	0	---	0.00	30.181 
21:40	33.5	33.5	33.5	84	29.2	0	0	---	0.00	30.181 
21:45	33.4	33.4	33.4	84	29.1	0	0	---	0.00	30.182 
21:50	33.2	33.2	33.2	84	28.9	0	0	---	0.00	30.182 
21:55	33.1	33.1	33.1	85	29.1	0	0	---	0.00	30.182 
22:00	33.1	33.1	33.1	85	29.1	0	0	---	0.00	30.184 
22:05	32.9	32.9	32.9	85	28.9	0	0	---	0.00	30.184 
22:10	32.8	32.8	32.8	85	28.8	0	0	---	0.00	30.184 
22:15	32.7	32.7	32.7	85	28.7	0	0	---	0.00	30.183 
22:20	32.5	32.5	32.5	86	28.8	0	0	---	0.00	30.183 
22:25	32.4	32.4	32.4	85	28.4	0	0	---	0.00	30.183 
22:30	32.2	32.2	32.2	86	28.5	0	0	---	0.00	30.188 
22:35	32.2	32.2	32.2	86	28.5	0	0	---	0.00	30.188 
22:40	32.1	32.1	32.1	86	28.4	0	0	---	0.00	30.188 
22:45	31.9	31.9	31.9	86	28.2	0	0	---	0.00	30.188 
22:50	31.8	31.8	31.8	86	28.1	0	0	---	0.00	30.188 
22:55	31.8	31.8	31.8	86	28.1	0	0	---	0.00	30.188 
23:00	31.8	31.8	31.8	87	28.4	0	0	---	0.00	30.191 
23:05	31.8	31.8	31.8	86	28.1	0	0	---	0.00	30.191 
23:10	31.6	31.6	31.6	86	27.9	0	0	---	0.00	30.191 
23:15	31.5	31.5	31.5	86	27.8	0	0	---	0.00	30.187 
23:20	31.3	31.3	31.3	86	27.6	0	0	---	0.00	30.187 
23:25	31.2	31.2	31.2	87	27.8	0	0	---	0.00	30.187 
23:30	31.0	31.0	31.0	87	27.6	0	0	---	0.00	30.189 
23:35	31.0	31.0	31.0	87	27.6	0	0	---	0.00	30.189 
23:40	31.0	31.0	31.0	87	27.6	0	0	---	0.00	30.189 
23:45	31.0	31.0	31.0	87	27.6	0	0	---	0.00	30.189 
23:50	30.9	30.9	30.9	87	27.5	0	0	---	0.00	30.189 
23:55	30.9	30.9	30.9	87	27.5	0	0	---	0.00	30.189 

CoCoRaHS
IN-AL-39
A2 Web Hosting
Creative Commons License
GoDaddy
Look for:

loaded 2017-12-10 21:34:36 • last modified 2010-11-18 10:43:29
Privacy PolicyDisclaimer
• wx.awcolley.com is powered by PmWiki v.2002016 •
• all content (unless otherwise noted) © 2017 A W Colley